createdAt,value
2018-09-11T00:01:44.374Z,99225.66
2018-09-11T00:04:12.008Z,99224.33
2018-09-11T00:06:39.537Z,99231.90
2018-09-11T00:09:08.086Z,99229.70
2018-09-11T00:11:35.592Z,99231.04
2018-09-11T00:14:03.136Z,99229.28
2018-09-11T00:16:30.661Z,99228.42
2018-09-11T00:18:58.319Z,99236.97
2018-09-11T00:21:25.842Z,99227.94
2018-09-11T00:23:53.342Z,99227.94
2018-09-11T00:26:20.890Z,99224.40
2018-09-11T00:28:48.812Z,99225.26
2018-09-11T00:31:16.389Z,99219.99
2018-09-11T00:33:43.891Z,99215.48
2018-09-11T00:36:11.409Z,99214.63
2018-09-11T00:38:38.948Z,99217.76
2018-09-11T00:41:06.530Z,99209.25
2018-09-11T00:43:34.068Z,99219.10
2018-09-11T00:46:01.578Z,99220.45
2018-09-11T00:48:29.097Z,99225.81
2018-09-11T00:50:56.660Z,99222.27
2018-09-11T00:53:24.154Z,99227.64
2018-09-11T00:55:51.635Z,99226.70
2018-09-11T00:58:19.147Z,99224.95
2018-09-11T01:00:46.701Z,99228.98
2018-09-11T01:03:14.220Z,99233.50
2018-09-11T01:05:41.750Z,99235.32
2018-09-11T01:08:09.269Z,99238.37
2018-09-11T01:10:36.797Z,99237.52
2018-09-11T01:13:04.341Z,99239.34
2018-09-11T01:18:16.056Z,99239.72
2018-09-11T01:20:43.580Z,99237.52
2018-09-11T01:23:11.116Z,99246.92
2018-09-11T01:25:38.706Z,99244.61
2018-09-11T01:28:06.197Z,99250.95
2018-09-11T01:30:33.675Z,99254.98
2018-09-11T01:33:01.230Z,99252.29
2018-09-11T01:35:28.748Z,99252.77
2018-09-11T01:37:56.312Z,99255.45
2018-09-11T01:40:23.823Z,99249.23
2018-09-11T01:42:51.412Z,99247.89
2018-09-11T01:45:18.969Z,99255.45
2018-09-11T01:47:46.641Z,99246.55
2018-09-11T01:50:14.152Z,99256.32
2018-09-11T01:52:41.678Z,99255.94
2018-09-11T01:55:09.253Z,99255.45
2018-09-11T01:57:36.786Z,99261.31
2018-09-11T02:00:04.439Z,99256.39
2018-09-11T02:02:31.998Z,99258.62
2018-09-11T02:04:59.527Z,99262.24
2018-09-11T02:07:27.082Z,99264.45
2018-09-11T02:09:54.690Z,99262.55
2018-09-11T02:12:22.264Z,99265.23
2018-09-11T02:14:49.794Z,99260.42
2018-09-11T02:17:17.356Z,99266.69
2018-09-11T02:19:44.866Z,99264.93
2018-09-11T02:22:12.391Z,99267.13
2018-09-11T02:24:39.890Z,99266.20
2018-09-11T02:27:07.470Z,99271.09
2018-09-11T02:29:34.958Z,99266.69
2018-09-11T02:32:02.437Z,99269.37
2018-09-11T02:34:29.898Z,99268.89
2018-09-11T02:36:57.450Z,99262.17
2018-09-11T02:39:24.950Z,99264.45
2018-09-11T02:41:52.467Z,99263.11
2018-09-11T02:44:20.063Z,99266.69
2018-09-11T02:46:47.608Z,99267.13
2018-09-11T02:49:15.141Z,99268.96
2018-09-11T02:51:42.722Z,99269.44
2018-09-11T02:54:10.312Z,99273.84
2018-09-11T02:56:37.819Z,99269.92
2018-09-11T02:59:05.370Z,99272.61
2018-09-11T03:01:32.932Z,99273.95
2018-09-11T03:04:00.546Z,99277.02
2018-09-11T03:06:28.096Z,99279.70
2018-09-11T03:08:55.607Z,99281.05
2018-09-11T03:11:23.236Z,99284.21
2018-09-11T03:13:50.829Z,99290.44
2018-09-11T03:16:18.460Z,99292.27
2018-09-11T03:18:46.046Z,99288.61
2018-09-11T03:21:13.580Z,99284.21
2018-09-11T03:23:41.114Z,99287.38
2018-09-11T03:26:08.627Z,99287.86
2018-09-11T03:28:36.238Z,99295.98
2018-09-11T03:31:03.829Z,99295.91
2018-09-11T03:33:31.367Z,99299.05
2018-09-11T03:35:58.882Z,99298.59
2018-09-11T03:38:26.400Z,99295.02
2018-09-11T03:40:53.947Z,99297.70
2018-09-11T03:43:21.519Z,99301.73
2018-09-11T03:45:49.926Z,99311.13
2018-09-11T03:48:19.212Z,99311.06
2018-09-11T03:50:48.105Z,99309.65
2018-09-11T03:53:15.682Z,99312.34
2018-09-11T03:55:43.334Z,99312.78
2018-09-11T03:58:10.962Z,99310.51
2018-09-11T04:00:38.564Z,99315.02
2018-09-11T04:03:06.051Z,99312.71
2018-09-11T04:05:33.700Z,99321.73
2018-09-11T04:08:01.761Z,99318.56
2018-09-11T04:10:29.519Z,99319.05
2018-09-11T04:12:57.148Z,99329.78
2018-09-11T04:15:24.878Z,99329.78
2018-09-11T04:17:52.388Z,99331.13
2018-09-11T04:20:20.362Z,99332.47
2018-09-11T04:22:48.066Z,99336.50
2018-09-11T04:25:15.594Z,99332.47
2018-09-11T04:27:43.174Z,99331.51
2018-09-11T04:30:11.906Z,99328.34
2018-09-11T04:32:40.190Z,99322.11
2018-09-11T04:35:07.740Z,99319.91
2018-09-11T04:37:35.290Z,99323.45
2018-09-11T04:40:02.774Z,99323.08
2018-09-11T04:42:30.342Z,99324.00
2018-09-11T04:44:57.842Z,99320.84
2018-09-11T04:47:25.347Z,99321.80
2018-09-11T04:49:52.920Z,99323.15
2018-09-11T04:52:20.496Z,99321.32
2018-09-11T04:54:47.990Z,99327.17
2018-09-11T04:57:15.732Z,99324.97
2018-09-11T04:59:43.266Z,99325.34
2018-09-11T05:02:10.786Z,99329.38
2018-09-11T05:04:38.358Z,99329.86
2018-09-11T05:07:05.926Z,99324.00
2018-09-11T05:09:33.530Z,99326.38
2018-09-11T05:12:01.138Z,99333.03
2018-09-11T05:14:28.880Z,99333.03
2018-09-11T05:16:56.458Z,99327.24
2018-09-11T05:19:23.946Z,99333.51
2018-09-11T05:21:51.469Z,99337.53
2018-09-11T05:24:19.035Z,99337.98
2018-09-11T05:26:46.656Z,99336.64
2018-09-11T05:29:14.167Z,99342.98
2018-09-11T05:31:41.758Z,99347.00
2018-09-11T05:34:09.351Z,99349.69
2018-09-11T05:36:36.902Z,99352.86
2018-09-11T05:39:06.136Z,99356.41
2018-09-11T05:41:33.619Z,99365.25
2018-09-11T05:44:01.149Z,99364.84
2018-09-11T05:46:28.674Z,99363.05
2018-09-11T05:48:56.221Z,99364.39
2018-09-11T05:51:23.801Z,99365.25
2018-09-11T05:53:51.365Z,99366.59
2018-09-11T05:56:18.878Z,99364.84
2018-09-11T05:58:46.396Z,99359.95
2018-09-11T06:01:13.925Z,99361.22
2018-09-11T06:03:41.458Z,99366.18
2018-09-11T06:06:08.938Z,99366.18
2018-09-11T06:08:36.435Z,99370.20
2018-09-11T06:11:03.983Z,99376.06
2018-09-11T06:13:31.563Z,99377.81
2018-09-11T06:15:59.106Z,99369.83
2018-09-11T06:18:26.664Z,99376.06
2018-09-11T06:20:54.227Z,99375.58
2018-09-11T06:23:21.716Z,99376.92
2018-09-11T06:25:49.274Z,99374.65
2018-09-11T06:28:16.784Z,99367.52
2018-09-11T06:30:44.288Z,99370.63
2018-09-11T06:33:11.811Z,99375.13
2018-09-11T06:35:39.322Z,99373.78
2018-09-11T06:38:06.856Z,99367.52
2018-09-11T06:40:34.410Z,99372.89
2018-09-11T06:43:02.085Z,99373.78
2018-09-11T06:45:29.722Z,99375.99
2018-09-11T06:47:57.245Z,99374.65
2018-09-11T06:50:24.741Z,99372.83
2018-09-11T06:52:52.224Z,99380.88
2018-09-11T06:55:19.738Z,99380.40
2018-09-11T06:57:47.250Z,99379.05
2018-09-11T07:00:14.750Z,99376.85
2018-09-11T07:02:42.336Z,99383.56
2018-09-11T07:05:09.858Z,99373.78
2018-09-11T07:07:37.374Z,99381.73
2018-09-11T07:10:05.194Z,99372.34
2018-09-11T07:12:32.736Z,99374.16
2018-09-11T07:15:00.250Z,99374.55
2018-09-11T07:17:27.725Z,99376.37
2018-09-11T07:19:55.358Z,99377.23
2018-09-11T07:22:22.832Z,99374.55
2018-09-11T07:24:50.546Z,99379.47
2018-09-11T07:27:18.190Z,99380.33
2018-09-11T07:29:45.850Z,99374.48
2018-09-11T07:32:13.354Z,99377.54
2018-09-11T07:34:40.858Z,99380.70
2018-09-11T07:37:08.419Z,99380.70
2018-09-11T07:39:35.918Z,99380.22
2018-09-11T07:42:03.406Z,99383.33
2018-09-11T07:44:30.931Z,99381.56
2018-09-11T07:46:58.429Z,99379.78
2018-09-11T07:49:25.988Z,99386.48
2018-09-11T07:51:53.474Z,99385.59
2018-09-11T07:54:20.989Z,99392.72
2018-09-11T07:56:48.564Z,99395.41
2018-09-11T07:59:16.071Z,99395.89
2018-09-11T08:01:43.602Z,99397.61
2018-09-11T08:04:11.161Z,99395.41
2018-09-11T08:06:38.699Z,99401.64
2018-09-11T08:09:08.473Z,99402.50
2018-09-11T08:11:36.057Z,99396.20
2018-09-11T08:14:03.554Z,99391.69
2018-09-11T08:16:31.125Z,99391.20
2018-09-11T08:18:58.592Z,99388.90
2018-09-11T08:21:26.120Z,99392.07
2018-09-11T08:23:53.709Z,99390.24
2018-09-11T08:26:21.222Z,99388.83
2018-09-11T08:28:48.738Z,99389.31
2018-09-11T08:31:16.386Z,99381.26
2018-09-11T08:33:43.916Z,99388.34
2018-09-11T08:36:11.406Z,99386.14
2018-09-11T08:38:38.934Z,99381.64
2018-09-11T08:41:06.524Z,99379.43
2018-09-11T08:43:33.982Z,99381.64
2018-09-11T08:46:01.546Z,99382.98
2018-09-11T08:48:29.054Z,99378.02
2018-09-11T08:50:56.606Z,99382.05
2018-09-11T08:53:24.109Z,99381.16
2018-09-11T08:55:51.636Z,99383.84
2018-09-11T08:58:19.151Z,99379.36
2018-09-11T09:00:46.737Z,99377.13
2018-09-11T09:03:14.285Z,99378.02
2018-09-11T09:05:41.782Z,99386.08
2018-09-11T09:08:09.835Z,99381.08
2018-09-11T09:10:37.327Z,99376.67
2018-09-11T09:13:04.932Z,99375.71
2018-09-11T09:15:32.445Z,99381.08
2018-09-11T09:18:00.041Z,99379.36
2018-09-11T09:20:27.718Z,99379.73
2018-09-11T09:22:55.225Z,99376.19
2018-09-11T09:25:22.822Z,99375.33
2018-09-11T09:27:50.575Z,99373.02
2018-09-11T09:30:18.155Z,99373.50
2018-09-11T09:32:45.772Z,99372.16
2018-09-11T09:35:13.319Z,99373.88
2018-09-11T09:37:40.821Z,99375.71
2018-09-11T09:40:08.333Z,99374.85
2018-09-11T09:42:35.904Z,99366.31
2018-09-11T09:45:03.686Z,99365.45
2018-09-11T09:47:31.283Z,99369.37
2018-09-11T09:49:58.778Z,99367.65
2018-09-11T09:52:26.701Z,99368.52
2018-09-11T09:54:54.239Z,99368.03
2018-09-11T09:57:21.833Z,99371.61
2018-09-11T09:59:49.506Z,99359.97
2018-09-11T10:02:24.114Z,99361.42
2018-09-11T10:04:52.277Z,99362.28
2018-09-11T10:07:20.414Z,99362.28
2018-09-11T10:09:47.898Z,99361.73
2018-09-11T10:12:15.498Z,99350.98
2018-09-11T10:14:43.055Z,99347.89
2018-09-11T10:17:11.022Z,99347.98
2018-09-11T10:19:38.637Z,99346.17
2018-09-11T10:22:06.156Z,99341.77
2018-09-11T10:24:34.307Z,99343.55
2018-09-11T10:27:01.919Z,99347.98
2018-09-11T10:29:29.497Z,99347.58
2018-09-11T10:31:57.002Z,99342.62
2018-09-11T10:34:24.978Z,99340.42
2018-09-11T10:36:52.501Z,99345.79
2018-09-11T10:39:20.115Z,99343.10
2018-09-11T10:41:47.667Z,99347.13
2018-09-11T10:44:15.165Z,99342.14
2018-09-11T10:46:42.654Z,99337.73
2018-09-11T10:49:10.159Z,99334.56
2018-09-11T10:51:38.061Z,99334.56
2018-09-11T10:54:05.534Z,99329.19
2018-09-11T10:56:33.202Z,99318.52
2018-09-11T10:59:00.738Z,99329.67
2018-09-11T11:01:28.253Z,99318.93
2018-09-11T11:03:55.837Z,99317.59
2018-09-11T11:06:23.425Z,99318.03
2018-09-11T11:08:50.977Z,99311.25
2018-09-11T11:11:18.492Z,99312.22
2018-09-11T11:13:46.016Z,99314.91
2018-09-11T11:16:13.491Z,99307.30
2018-09-11T11:18:40.999Z,99306.44
2018-09-11T11:21:08.533Z,99303.27
2018-09-11T11:23:36.046Z,99309.12
2018-09-11T11:26:03.568Z,99302.81
2018-09-11T11:28:31.063Z,99300.58
2018-09-11T11:30:58.640Z,99293.87
2018-09-11T11:33:26.153Z,99286.29
2018-09-11T11:35:53.653Z,99280.06
2018-09-11T11:38:21.231Z,99285.43
2018-09-11T11:40:48.764Z,99285.91
2018-09-11T11:43:16.282Z,99291.66
2018-09-11T11:45:43.808Z,99287.63
2018-09-11T11:48:11.396Z,99295.69
2018-09-11T11:50:38.986Z,99289.94
2018-09-11T11:53:06.583Z,99285.81
2018-09-11T11:55:34.141Z,99284.57
2018-09-11T11:58:01.708Z,99281.03
2018-09-11T12:00:29.282Z,99276.52
2018-09-11T12:02:56.856Z,99267.11
2018-09-11T12:05:24.386Z,99267.01
2018-09-11T12:07:52.794Z,99270.17
2018-09-11T12:10:20.945Z,99267.01
2018-09-11T12:12:48.508Z,99267.01
2018-09-11T12:15:16.062Z,99265.22
2018-09-11T12:17:43.623Z,99259.36
2018-09-11T12:20:11.256Z,99255.41
2018-09-11T12:22:38.766Z,99266.08
2018-09-11T12:25:06.278Z,99263.88
2018-09-11T12:27:33.811Z,99252.16
2018-09-11T12:30:01.451Z,99258.02
2018-09-11T12:32:28.966Z,99249.48
2018-09-11T12:34:56.491Z,99258.88
2018-09-11T12:37:24.127Z,99253.98
2018-09-11T12:39:51.827Z,99252.23
2018-09-11T12:42:19.402Z,99249.96
2018-09-11T12:44:46.940Z,99239.70
2018-09-11T12:47:14.772Z,99237.02
2018-09-11T12:49:42.374Z,99239.70
2018-09-11T12:52:10.239Z,99238.36
2018-09-11T12:54:37.761Z,99239.59
2018-09-11T12:57:05.554Z,99234.70
2018-09-11T12:59:33.010Z,99237.39
2018-09-11T13:02:00.561Z,99234.70
2018-09-11T13:04:28.133Z,99232.50
2018-09-11T13:06:55.636Z,99232.98
2018-09-11T13:09:23.215Z,99232.50
2018-09-11T13:11:50.847Z,99228.85
2018-09-11T13:14:18.393Z,99222.62
2018-09-11T13:16:45.943Z,99227.99
2018-09-11T13:19:13.603Z,99221.27
2018-09-11T13:21:41.134Z,99221.66
2018-09-11T13:24:08.792Z,99220.72
2018-09-11T13:26:36.329Z,99216.69
2018-09-11T13:29:03.906Z,99217.92
2018-09-11T13:31:31.406Z,99220.16
2018-09-11T13:33:59.048Z,99220.54
2018-09-11T13:36:26.626Z,99213.75
2018-09-11T13:38:54.146Z,99210.17
2018-09-11T13:41:21.691Z,99211.06
2018-09-11T13:43:50.146Z,99207.15
2018-09-11T13:46:18.518Z,99208.09
2018-09-11T13:48:46.710Z,99200.99
2018-09-11T13:51:14.894Z,99201.37
2018-09-11T13:53:43.131Z,99204.05
2018-09-11T13:56:11.379Z,99203.68
2018-09-11T13:58:39.653Z,99206.74
2018-09-11T14:01:08.224Z,99207.63
2018-09-11T14:03:36.445Z,99199.17
2018-09-11T14:06:04.662Z,99200.02
2018-09-11T14:08:32.964Z,99195.55
2018-09-11T14:11:01.215Z,99193.72
2018-09-11T14:13:29.434Z,99194.47
2018-09-11T14:15:57.663Z,99189.09
2018-09-11T14:18:25.970Z,99192.27
2018-09-11T14:20:54.227Z,99195.25
2018-09-11T14:23:22.543Z,99186.81
2018-09-11T14:25:50.809Z,99187.19
2018-09-11T14:28:19.069Z,99187.67
2018-09-11T14:30:47.303Z,99188.53
2018-09-11T14:33:15.571Z,99184.13
2018-09-11T14:35:43.816Z,99180.48
2018-09-11T14:38:12.474Z,99173.69
2018-09-11T14:40:40.682Z,99162.64
2018-09-11T14:43:09.045Z,99163.98
2018-09-11T14:45:37.427Z,99171.08
2018-09-11T14:48:06.119Z,99166.11
2018-09-11T14:50:34.394Z,99170.22
2018-09-11T14:53:02.663Z,99174.92
2018-09-11T14:55:30.948Z,99176.74
2018-09-11T14:57:59.182Z,99173.20
2018-09-11T15:00:27.414Z,99171.38
2018-09-11T15:02:55.699Z,99168.80
2018-09-11T15:05:23.969Z,99161.03
2018-09-11T15:07:52.308Z,99162.83
2018-09-11T15:10:20.446Z,99152.97
2018-09-11T15:12:48.675Z,99149.80
2018-09-11T15:15:16.982Z,99144.43
2018-09-11T15:17:45.265Z,99143.09
2018-09-11T15:20:13.491Z,99139.06
2018-09-11T15:22:41.813Z,99138.65
2018-09-11T15:25:09.975Z,99141.74
2018-09-11T15:27:38.255Z,99138.65
2018-09-11T15:30:06.531Z,99137.72
2018-09-11T15:32:34.867Z,99139.99
2018-09-11T15:35:03.213Z,99135.03
2018-09-11T15:37:31.439Z,99130.59
2018-09-11T15:39:59.714Z,99125.22
2018-09-11T15:42:27.941Z,99124.47
2018-09-11T15:44:56.181Z,99120.44
2018-09-11T15:47:30.889Z,99119.47
2018-09-11T15:49:59.146Z,99122.23
2018-09-11T15:52:27.438Z,99118.61
2018-09-11T15:54:55.907Z,99119.47
2018-09-11T15:57:24.177Z,99109.20
2018-09-11T15:59:52.426Z,99119.95
2018-09-11T16:02:20.646Z,99111.48
2018-09-11T16:04:48.872Z,99114.58
2018-09-11T16:07:17.129Z,99105.66
2018-09-11T16:09:45.376Z,99097.61
2018-09-11T16:12:13.641Z,99099.40
2018-09-11T16:14:41.899Z,99106.04
2018-09-11T16:17:10.117Z,99108.24
2018-09-11T16:19:38.338Z,99106.04
2018-09-11T16:22:06.650Z,99100.66
2018-09-11T16:24:34.879Z,99102.98
2018-09-11T16:27:03.172Z,99096.72
2018-09-11T16:29:31.445Z,99104.32
2018-09-11T16:31:59.714Z,99098.47
2018-09-11T16:34:27.935Z,99098.35
2018-09-11T16:36:56.150Z,99104.62
2018-09-11T16:39:24.386Z,99094.03
2018-09-11T16:41:52.697Z,99101.04
2018-09-11T16:44:20.933Z,99105.55
2018-09-11T16:46:49.187Z,99102.38
2018-09-11T16:49:17.457Z,99101.52
2018-09-11T16:51:45.721Z,99105.06
2018-09-11T16:54:13.927Z,99105.66
2018-09-11T16:56:42.172Z,99110.92
2018-09-11T16:59:10.419Z,99106.41
2018-09-11T17:01:38.755Z,99106.41
2018-09-11T17:04:07.010Z,99108.34
2018-09-11T17:06:35.223Z,99104.77
2018-09-11T17:09:03.727Z,99108.05
2018-09-11T17:11:31.951Z,99112.09
2018-09-11T17:14:00.154Z,99107.57
2018-09-11T17:16:28.521Z,99112.45
2018-09-11T17:18:56.783Z,99112.45
2018-09-11T17:21:25.025Z,99114.66
2018-09-11T17:23:53.239Z,99117.34
2018-09-11T17:26:21.520Z,99121.38
2018-09-11T17:28:49.817Z,99116.97
2018-09-11T17:31:18.175Z,99123.20
2018-09-11T17:33:46.447Z,99121.00
2018-09-11T17:36:14.751Z,99128.58
2018-09-11T17:38:43.058Z,99126.75
2018-09-11T17:41:11.291Z,99132.13
2018-09-11T17:43:39.569Z,99129.06
2018-09-11T17:46:07.783Z,99125.03
2018-09-11T17:48:36.160Z,99124.17
2018-09-11T17:51:04.377Z,99127.72
2018-09-11T17:53:32.635Z,99133.47
2018-09-11T17:56:00.925Z,99127.72
2018-09-11T17:58:29.158Z,99129.06
2018-09-11T18:00:57.511Z,99131.27
2018-09-11T18:03:25.784Z,99131.64
2018-09-11T18:05:54.070Z,99137.01
2018-09-11T18:08:22.287Z,99141.52
2018-09-11T18:10:50.504Z,99143.84
2018-09-11T18:13:18.745Z,99150.06
2018-09-11T18:15:47.151Z,99152.19
2018-09-11T18:18:15.343Z,99157.27
2018-09-11T18:20:43.603Z,99157.45
2018-09-11T18:23:11.949Z,99157.27
2018-09-11T18:25:40.255Z,99154.95
2018-09-11T18:28:08.555Z,99151.48
2018-09-11T18:30:36.794Z,99153.72
2018-09-11T18:33:05.054Z,99150.62
2018-09-11T18:35:33.311Z,99152.45
2018-09-11T18:38:01.653Z,99159.55
2018-09-11T18:40:29.995Z,99164.06
2018-09-11T18:42:58.334Z,99161.48
2018-09-11T18:45:26.583Z,99169.92
2018-09-11T18:47:54.803Z,99173.46
2018-09-11T18:50:23.021Z,99170.30
2018-09-11T18:52:51.328Z,99170.78
2018-09-11T18:55:19.686Z,99182.78
2018-09-11T18:57:48.083Z,99176.93
2018-09-11T19:00:19.335Z,99180.10
2018-09-11T19:02:47.641Z,99173.39
2018-09-11T19:05:15.951Z,99183.16
2018-09-11T19:07:44.148Z,99177.30
2018-09-11T19:10:12.506Z,99182.78
2018-09-11T19:12:40.779Z,99189.88
2018-09-11T19:15:09.034Z,99186.81
2018-09-11T19:17:37.497Z,99188.05
2018-09-11T19:20:06.255Z,99197.38
2018-09-11T19:22:34.596Z,99186.26
2018-09-11T19:25:02.898Z,99188.83
2018-09-11T19:27:31.141Z,99187.49
2018-09-11T19:29:59.471Z,99183.46
2018-09-11T19:32:27.779Z,99182.12
2018-09-11T19:34:56.081Z,99171.94
2018-09-11T19:37:24.322Z,99173.39
2018-09-11T19:39:52.539Z,99179.84
2018-09-11T19:42:20.965Z,99167.75
2018-09-11T19:44:49.158Z,99173.98
2018-09-11T19:47:17.394Z,99177.53
2018-09-11T19:49:45.772Z,99173.98
2018-09-11T19:52:14.071Z,99182.04
2018-09-11T19:54:42.367Z,99192.79
2018-09-11T19:57:10.659Z,99193.16
2018-09-11T19:59:39.815Z,99194.51
2018-09-11T20:02:08.043Z,99189.24
2018-09-11T20:04:36.297Z,99187.41
2018-09-11T20:07:04.545Z,99189.09
2018-09-11T20:09:32.750Z,99181.89
2018-09-11T20:12:01.077Z,99186.30
2018-09-11T20:14:29.313Z,99178.38
2018-09-11T20:16:57.583Z,99181.56
2018-09-11T20:19:25.799Z,99180.22
2018-09-11T20:21:54.139Z,99180.22
2018-09-11T20:24:22.417Z,99190.10
2018-09-11T20:26:50.683Z,99189.13
2018-09-11T20:29:19.003Z,99188.27
2018-09-11T20:31:47.458Z,99180.14
2018-09-11T20:34:16.001Z,99181.89
2018-09-11T20:36:44.223Z,99177.00
2018-09-11T20:39:13.133Z,99176.52
2018-09-11T20:41:41.447Z,99172.08
2018-09-11T20:44:10.529Z,99184.16
2018-09-11T20:46:38.894Z,99188.20
2018-09-11T20:49:07.260Z,99198.49
2018-09-11T20:51:35.479Z,99193.57
2018-09-11T20:54:03.902Z,99201.63
2018-09-11T20:56:32.192Z,99195.36
2018-09-11T20:59:00.639Z,99196.25
2018-09-11T21:02:58.113Z,99189.99
2018-09-11T21:05:26.429Z,99187.79
2018-09-11T21:07:54.685Z,99202.97
2018-09-11T21:10:22.989Z,99194.51
2018-09-11T21:12:51.235Z,99197.59
2018-09-11T21:15:19.524Z,99202.56
2018-09-11T21:17:47.799Z,99202.56
2018-09-11T21:20:16.084Z,99200.73
2018-09-11T21:22:44.354Z,99202.56
2018-09-11T21:25:12.605Z,99202.56
2018-09-11T21:27:40.903Z,99197.59
2018-09-11T21:30:09.114Z,99198.49
2018-09-11T21:32:37.381Z,99198.49
2018-09-11T21:35:06.407Z,99190.80
2018-09-11T21:37:34.646Z,99197.16
2018-09-11T21:40:03.291Z,99196.59
2018-09-11T21:42:32.648Z,99197.53
2018-09-11T21:45:00.931Z,99194.35
2018-09-11T21:47:29.162Z,99201.96
2018-09-11T21:49:57.454Z,99199.73
2018-09-11T21:52:25.877Z,99203.31
2018-09-11T21:54:54.379Z,99205.99
2018-09-11T21:57:22.722Z,99203.76
2018-09-11T21:59:51.096Z,99199.73
2018-09-11T22:02:19.375Z,99204.65
2018-09-11T22:04:47.592Z,99212.22
2018-09-11T22:07:15.876Z,99213.08
2018-09-11T22:09:44.118Z,99213.56
2018-09-11T22:12:12.453Z,99209.54
2018-09-11T22:14:40.764Z,99208.19
2018-09-11T22:17:08.955Z,99206.85
2018-09-11T22:19:37.235Z,99208.27
2018-09-11T22:22:05.466Z,99209.13
2018-09-11T22:24:33.721Z,99209.54
2018-09-11T22:27:01.943Z,99211.81
2018-09-11T22:29:30.166Z,99209.13
2018-09-11T22:31:58.380Z,99208.27
2018-09-11T22:34:26.650Z,99210.02
2018-09-11T22:36:54.867Z,99204.24
2018-09-11T22:39:23.140Z,99198.87
2018-09-11T22:41:51.383Z,99196.25
2018-09-11T22:44:19.673Z,99199.84
2018-09-11T22:46:47.977Z,99196.66
2018-09-11T22:49:16.225Z,99207.41
2018-09-11T22:51:44.528Z,99200.70
2018-09-11T22:54:12.799Z,99195.36
2018-09-11T22:56:40.985Z,99198.49
2018-09-11T22:59:09.239Z,99198.95
2018-09-11T23:01:37.533Z,99191.33
2018-09-11T23:04:05.822Z,99197.19
2018-09-11T23:06:34.087Z,99197.59
2018-09-11T23:09:02.389Z,99194.98
2018-09-11T23:11:30.654Z,99195.84
2018-09-11T23:13:58.867Z,99191.33
2018-09-11T23:16:27.215Z,99188.20
2018-09-11T23:18:55.522Z,99184.16
2018-09-11T23:21:23.762Z,99191.81
2018-09-11T23:23:52.047Z,99188.65
2018-09-11T23:26:20.420Z,99187.79
2018-09-11T23:28:48.682Z,99192.23
2018-09-11T23:31:16.956Z,99194.02
2018-09-11T23:33:45.215Z,99185.97
2018-09-11T23:36:13.486Z,99191.33
2018-09-11T23:38:41.707Z,99190.48
2018-09-11T23:41:10.109Z,99193.57
2018-09-11T23:43:38.363Z,99194.02
2018-09-11T23:46:06.755Z,99194.91
2018-09-11T23:48:34.991Z,99195.36
2018-09-11T23:51:03.277Z,99189.99
2018-09-11T23:53:31.546Z,99196.70
2018-09-11T23:55:59.866Z,99190.95
2018-09-11T23:58:28.185Z,99190.48
